sensor_id;sensor_type;location;lat;lon;timestamp;temperature;humidity
3408;DHT22;1717;50.240;8.406;2023-01-25T00:02:09;5.10;99.90
3408;DHT22;1717;50.240;8.406;2023-01-25T00:04:36;5.10;99.90
3408;DHT22;1717;50.240;8.406;2023-01-25T00:07:03;5.10;99.90
3408;DHT22;1717;50.240;8.406;2023-01-25T00:09:29;5.10;99.90
3408;DHT22;1717;50.240;8.406;2023-01-25T00:11:56;5.10;99.90
3408;DHT22;1717;50.240;8.406;2023-01-25T00:14:24;5.10;99.90
3408;DHT22;1717;50.240;8.406;2023-01-25T00:16:51;5.10;99.90
3408;DHT22;1717;50.240;8.406;2023-01-25T00:19:18;5.10;99.90
3408;DHT22;1717;50.240;8.406;2023-01-25T00:21:45;5.10;99.90
3408;DHT22;1717;50.240;8.406;2023-01-25T00:24:12;5.10;99.90
3408;DHT22;1717;50.240;8.406;2023-01-25T00:26:40;5.10;99.90
3408;DHT22;1717;50.240;8.406;2023-01-25T00:29:10;5.10;99.90
3408;DHT22;1717;50.240;8.406;2023-01-25T00:31:43;5.10;99.90
3408;DHT22;1717;50.240;8.406;2023-01-25T00:34:46;5.10;99.90
3408;DHT22;1717;50.240;8.406;2023-01-25T00:37:23;5.10;99.90
3408;DHT22;1717;50.240;8.406;2023-01-25T00:39:51;5.10;99.90
3408;DHT22;1717;50.240;8.406;2023-01-25T00:42:18;5.00;99.90
3408;DHT22;1717;50.240;8.406;2023-01-25T00:44:46;5.00;99.90
3408;DHT22;1717;50.240;8.406;2023-01-25T00:47:14;5.00;99.90
3408;DHT22;1717;50.240;8.406;2023-01-25T00:49:42;5.00;99.90
3408;DHT22;1717;50.240;8.406;2023-01-25T00:52:10;5.00;99.90
3408;DHT22;1717;50.240;8.406;2023-01-25T00:54:37;5.00;99.90
3408;DHT22;1717;50.240;8.406;2023-01-25T00:57:04;5.10;99.90
3408;DHT22;1717;50.240;8.406;2023-01-25T00:59:31;5.00;99.90
3408;DHT22;1717;50.240;8.406;2023-01-25T01:01:58;5.00;99.90
3408;DHT22;1717;50.240;8.406;2023-01-25T01:04:27;5.00;99.90
3408;DHT22;1717;50.240;8.406;2023-01-25T01:06:54;5.00;99.90
3408;DHT22;1717;50.240;8.406;2023-01-25T01:09:23;5.00;99.90
3408;DHT22;1717;50.240;8.406;2023-01-25T01:11:50;4.90;99.90
3408;DHT22;1717;50.240;8.406;2023-01-25T01:14:17;5.00;99.90
3408;DHT22;1717;50.240;8.406;2023-01-25T01:16:44;5.00;99.90
3408;DHT22;1717;50.240;8.406;2023-01-25T01:19:12;5.00;99.90
3408;DHT22;1717;50.240;8.406;2023-01-25T01:21:40;5.00;99.90
3408;DHT22;1717;50.240;8.406;2023-01-25T01:24:07;5.00;99.90
3408;DHT22;1717;50.240;8.406;2023-01-25T01:26:34;4.90;99.90
3408;DHT22;1717;50.240;8.406;2023-01-25T01:29:01;5.00;99.90
3408;DHT22;1717;50.240;8.406;2023-01-25T01:31:28;4.90;99.90
3408;DHT22;1717;50.240;8.406;2023-01-25T01:33:56;5.00;99.90
3408;DHT22;1717;50.240;8.406;2023-01-25T01:36:25;4.90;99.90
3408;DHT22;1717;50.240;8.406;2023-01-25T01:38:54;4.90;99.90
3408;DHT22;1717;50.240;8.406;2023-01-25T01:41:21;4.90;99.90
3408;DHT22;1717;50.240;8.406;2023-01-25T01:43:48;4.90;99.90
3408;DHT22;1717;50.240;8.406;2023-01-25T01:46:21;4.90;99.90
3408;DHT22;1717;50.240;8.406;2023-01-25T01:48:52;4.90;99.90
3408;DHT22;1717;50.240;8.406;2023-01-25T01:51:22;4.90;99.90
3408;DHT22;1717;50.240;8.406;2023-01-25T01:53:55;4.90;99.90
3408;DHT22;1717;50.240;8.406;2023-01-25T01:56:27;4.90;99.90
3408;DHT22;1717;50.240;8.406;2023-01-25T01:58:58;4.90;99.90
3408;DHT22;1717;50.240;8.406;2023-01-25T02:01:25;4.90;99.90
3408;DHT22;1717;50.240;8.406;2023-01-25T02:03:53;4.90;99.90
3408;DHT22;1717;50.240;8.406;2023-01-25T02:06:26;4.90;99.90
3408;DHT22;1717;50.240;8.406;2023-01-25T02:08:55;4.90;99.90
3408;DHT22;1717;50.240;8.406;2023-01-25T02:11:24;4.90;99.90
3408;DHT22;1717;50.240;8.406;2023-01-25T02:13:52;4.90;99.90
3408;DHT22;1717;50.240;8.406;2023-01-25T02:16:23;4.90;99.90
3408;DHT22;1717;50.240;8.406;2023-01-25T02:18:51;4.90;99.90
3408;DHT22;1717;50.240;8.406;2023-01-25T02:21:19;4.90;99.90
3408;DHT22;1717;50.240;8.406;2023-01-25T02:23:51;4.90;99.90
3408;DHT22;1717;50.240;8.406;2023-01-25T02:26:21;4.80;99.90
3408;DHT22;1717;50.240;8.406;2023-01-25T02:28:51;4.90;99.90
3408;DHT22;1717;50.240;8.406;2023-01-25T02:31:20;4.80;99.90
3408;DHT22;1717;50.240;8.406;2023-01-25T02:33:46;4.90;99.90
3408;DHT22;1717;50.240;8.406;2023-01-25T02:36:18;4.80;99.90
3408;DHT22;1717;50.240;8.406;2023-01-25T02:38:50;4.80;99.90
3408;DHT22;1717;50.240;8.406;2023-01-25T02:41:24;4.80;99.90
3408;DHT22;1717;50.240;8.406;2023-01-25T02:43:53;4.80;99.90
3408;DHT22;1717;50.240;8.406;2023-01-25T02:46:23;4.80;99.90
3408;DHT22;1717;50.240;8.406;2023-01-25T02:48:52;4.80;99.90
3408;DHT22;1717;50.240;8.406;2023-01-25T02:51:20;4.80;99.90
3408;DHT22;1717;50.240;8.406;2023-01-25T02:53:47;4.70;99.90
3408;DHT22;1717;50.240;8.406;2023-01-25T02:56:14;4.70;99.90
3408;DHT22;1717;50.240;8.406;2023-01-25T02:58:43;4.70;99.90
3408;DHT22;1717;50.240;8.406;2023-01-25T03:01:10;4.70;99.90
3408;DHT22;1717;50.240;8.406;2023-01-25T03:03:37;4.70;99.90
3408;DHT22;1717;50.240;8.406;2023-01-25T03:06:05;4.70;99.90
3408;DHT22;1717;50.240;8.406;2023-01-25T03:08:32;4.70;99.90
3408;DHT22;1717;50.240;8.406;2023-01-25T03:11:00;4.60;99.90
3408;DHT22;1717;50.240;8.406;2023-01-25T03:13:28;4.70;99.90
3408;DHT22;1717;50.240;8.406;2023-01-25T03:16:00;4.70;99.90
3408;DHT22;1717;50.240;8.406;2023-01-25T03:18:27;4.60;99.90
3408;DHT22;1717;50.240;8.406;2023-01-25T03:20:54;4.60;99.90
3408;DHT22;1717;50.240;8.406;2023-01-25T03:23:21;4.60;99.90
3408;DHT22;1717;50.240;8.406;2023-01-25T03:25:49;4.60;99.90
3408;DHT22;1717;50.240;8.406;2023-01-25T03:28:16;4.60;99.90
3408;DHT22;1717;50.240;8.406;2023-01-25T03:30:43;4.60;99.90
3408;DHT22;1717;50.240;8.406;2023-01-25T03:33:15;4.70;99.90
3408;DHT22;1717;50.240;8.406;2023-01-25T03:35:42;4.60;99.90
3408;DHT22;1717;50.240;8.406;2023-01-25T03:38:09;4.60;99.90
3408;DHT22;1717;50.240;8.406;2023-01-25T03:40:35;4.60;99.90
3408;DHT22;1717;50.240;8.406;2023-01-25T03:43:02;4.50;99.90
3408;DHT22;1717;50.240;8.406;2023-01-25T03:45:29;4.50;99.90
3408;DHT22;1717;50.240;8.406;2023-01-25T03:47:56;4.50;99.90
3408;DHT22;1717;50.240;8.406;2023-01-25T03:50:24;4.50;99.90
3408;DHT22;1717;50.240;8.406;2023-01-25T03:52:50;4.50;99.90
3408;DHT22;1717;50.240;8.406;2023-01-25T03:55:23;4.50;99.90
3408;DHT22;1717;50.240;8.406;2023-01-25T03:57:50;4.50;99.90
3408;DHT22;1717;50.240;8.406;2023-01-25T04:00:17;4.50;99.90
3408;DHT22;1717;50.240;8.406;2023-01-25T04:02:45;4.50;99.90
3408;DHT22;1717;50.240;8.406;2023-01-25T04:05:12;4.50;99.90
3408;DHT22;1717;50.240;8.406;2023-01-25T04:07:40;4.50;99.90
3408;DHT22;1717;50.240;8.406;2023-01-25T04:10:08;4.50;99.90
3408;DHT22;1717;50.240;8.406;2023-01-25T04:12:35;4.50;99.90
3408;DHT22;1717;50.240;8.406;2023-01-25T04:15:02;4.50;99.90
3408;DHT22;1717;50.240;8.406;2023-01-25T04:17:29;4.50;99.90
3408;DHT22;1717;50.240;8.406;2023-01-25T04:19:56;4.50;99.90
3408;DHT22;1717;50.240;8.406;2023-01-25T04:22:23;4.50;99.90
3408;DHT22;1717;50.240;8.406;2023-01-25T04:24:51;4.50;99.90
3408;DHT22;1717;50.240;8.406;2023-01-25T04:27:18;4.50;99.90
3408;DHT22;1717;50.240;8.406;2023-01-25T04:29:44;4.50;99.90
3408;DHT22;1717;50.240;8.406;2023-01-25T04:32:11;4.50;99.90
3408;DHT22;1717;50.240;8.406;2023-01-25T04:34:38;4.60;99.90
3408;DHT22;1717;50.240;8.406;2023-01-25T04:37:05;4.50;99.90
3408;DHT22;1717;50.240;8.406;2023-01-25T04:39:32;4.50;99.90
3408;DHT22;1717;50.240;8.406;2023-01-25T04:42:00;4.50;99.90
3408;DHT22;1717;50.240;8.406;2023-01-25T04:44:26;4.50;99.90
3408;DHT22;1717;50.240;8.406;2023-01-25T04:46:53;4.50;99.90
3408;DHT22;1717;50.240;8.406;2023-01-25T04:49:20;4.50;99.90
3408;DHT22;1717;50.240;8.406;2023-01-25T04:51:47;4.50;99.90
3408;DHT22;1717;50.240;8.406;2023-01-25T04:54:14;4.50;99.90
3408;DHT22;1717;50.240;8.406;2023-01-25T04:56:40;4.50;99.90
3408;DHT22;1717;50.240;8.406;2023-01-25T04:59:09;4.50;99.90
3408;DHT22;1717;50.240;8.406;2023-01-25T05:01:36;4.50;99.90
3408;DHT22;1717;50.240;8.406;2023-01-25T05:04:03;4.50;99.90
3408;DHT22;1717;50.240;8.406;2023-01-25T05:06:30;4.50;99.90
3408;DHT22;1717;50.240;8.406;2023-01-25T05:08:56;4.50;99.90
3408;DHT22;1717;50.240;8.406;2023-01-25T05:11:23;4.50;99.90
3408;DHT22;1717;50.240;8.406;2023-01-25T05:13:50;4.50;99.90
3408;DHT22;1717;50.240;8.406;2023-01-25T05:16:20;4.50;99.90
3408;DHT22;1717;50.240;8.406;2023-01-25T05:18:47;4.50;99.90
3408;DHT22;1717;50.240;8.406;2023-01-25T05:21:14;4.50;99.90
3408;DHT22;1717;50.240;8.406;2023-01-25T05:23:54;4.50;99.90
3408;DHT22;1717;50.240;8.406;2023-01-25T05:26:21;4.50;99.90
3408;DHT22;1717;50.240;8.406;2023-01-25T05:29:05;4.40;99.90
3408;DHT22;1717;50.240;8.406;2023-01-25T05:31:33;4.40;99.90
3408;DHT22;1717;50.240;8.406;2023-01-25T05:34:00;4.40;99.90
3408;DHT22;1717;50.240;8.406;2023-01-25T05:36:27;4.40;99.90
3408;DHT22;1717;50.240;8.406;2023-01-25T05:38:53;4.40;99.90
3408;DHT22;1717;50.240;8.406;2023-01-25T05:41:20;4.40;99.90
3408;DHT22;1717;50.240;8.406;2023-01-25T05:43:47;4.50;99.90
3408;DHT22;1717;50.240;8.406;2023-01-25T05:46:14;4.50;99.90
3408;DHT22;1717;50.240;8.406;2023-01-25T05:48:42;4.40;99.90
3408;DHT22;1717;50.240;8.406;2023-01-25T05:51:09;4.50;99.90
3408;DHT22;1717;50.240;8.406;2023-01-25T05:53:36;4.50;99.90
3408;DHT22;1717;50.240;8.406;2023-01-25T05:56:03;4.50;99.90
3408;DHT22;1717;50.240;8.406;2023-01-25T05:58:30;4.30;99.90
3408;DHT22;1717;50.240;8.406;2023-01-25T06:00:59;4.20;99.90
3408;DHT22;1717;50.240;8.406;2023-01-25T06:03:25;4.10;99.90
3408;DHT22;1717;50.240;8.406;2023-01-25T06:05:55;4.10;99.90
3408;DHT22;1717;50.240;8.406;2023-01-25T06:08:22;4.10;99.90
3408;DHT22;1717;50.240;8.406;2023-01-25T06:10:49;4.00;99.90
3408;DHT22;1717;50.240;8.406;2023-01-25T06:13:16;4.00;99.90
3408;DHT22;1717;50.240;8.406;2023-01-25T06:15:50;4.00;99.90
3408;DHT22;1717;50.240;8.406;2023-01-25T06:18:17;4.00;99.90
3408;DHT22;1717;50.240;8.406;2023-01-25T06:20:44;4.00;99.90
3408;DHT22;1717;50.240;8.406;2023-01-25T06:23:12;4.00;99.90
3408;DHT22;1717;50.240;8.406;2023-01-25T06:25:39;3.90;99.90
3408;DHT22;1717;50.240;8.406;2023-01-25T06:28:06;4.00;99.90
3408;DHT22;1717;50.240;8.406;2023-01-25T06:30:33;4.00;99.90
3408;DHT22;1717;50.240;8.406;2023-01-25T06:33:00;3.90;99.90
3408;DHT22;1717;50.240;8.406;2023-01-25T06:35:28;3.90;99.90
3408;DHT22;1717;50.240;8.406;2023-01-25T06:37:56;3.90;99.90
3408;DHT22;1717;50.240;8.406;2023-01-25T06:40:25;3.90;99.90
3408;DHT22;1717;50.240;8.406;2023-01-25T06:42:52;3.90;99.90
3408;DHT22;1717;50.240;8.406;2023-01-25T06:45:19;3.90;99.90
3408;DHT22;1717;50.240;8.406;2023-01-25T06:47:48;3.90;99.90
3408;DHT22;1717;50.240;8.406;2023-01-25T06:50:15;3.80;99.90
3408;DHT22;1717;50.240;8.406;2023-01-25T06:52:41;3.80;99.90
3408;DHT22;1717;50.240;8.406;2023-01-25T06:55:08;3.80;99.90
3408;DHT22;1717;50.240;8.406;2023-01-25T06:57:39;3.70;99.90
3408;DHT22;1717;50.240;8.406;2023-01-25T07:00:07;3.70;99.90
3408;DHT22;1717;50.240;8.406;2023-01-25T07:02:35;3.70;99.90
3408;DHT22;1717;50.240;8.406;2023-01-25T07:05:02;3.70;99.90
3408;DHT22;1717;50.240;8.406;2023-01-25T07:07:28;3.70;99.90
3408;DHT22;1717;50.240;8.406;2023-01-25T07:09:55;3.70;99.90
3408;DHT22;1717;50.240;8.406;2023-01-25T07:12:23;3.80;99.90
3408;DHT22;1717;50.240;8.406;2023-01-25T07:14:51;3.80;99.90
3408;DHT22;1717;50.240;8.406;2023-01-25T07:17:18;3.80;99.90
3408;DHT22;1717;50.240;8.406;2023-01-25T07:19:45;3.80;99.90
3408;DHT22;1717;50.240;8.406;2023-01-25T07:22:13;3.70;99.90
3408;DHT22;1717;50.240;8.406;2023-01-25T07:24:39;3.70;99.90
3408;DHT22;1717;50.240;8.406;2023-01-25T07:27:07;3.70;99.90
3408;DHT22;1717;50.240;8.406;2023-01-25T07:29:34;3.70;99.90
3408;DHT22;1717;50.240;8.406;2023-01-25T07:32:02;3.60;99.90
3408;DHT22;1717;50.240;8.406;2023-01-25T07:34:31;3.60;99.90
3408;DHT22;1717;50.240;8.406;2023-01-25T07:36:57;3.60;99.90
3408;DHT22;1717;50.240;8.406;2023-01-25T07:39:24;3.60;99.90
3408;DHT22;1717;50.240;8.406;2023-01-25T07:41:51;3.60;99.90
3408;DHT22;1717;50.240;8.406;2023-01-25T07:44:18;3.50;99.90
3408;DHT22;1717;50.240;8.406;2023-01-25T07:46:44;3.50;99.90
3408;DHT22;1717;50.240;8.406;2023-01-25T07:49:13;3.50;99.90
3408;DHT22;1717;50.240;8.406;2023-01-25T07:51:39;3.50;99.90
3408;DHT22;1717;50.240;8.406;2023-01-25T07:54:09;3.50;99.90
3408;DHT22;1717;50.240;8.406;2023-01-25T07:56:36;3.50;99.90
3408;DHT22;1717;50.240;8.406;2023-01-25T07:59:05;3.40;99.90
3408;DHT22;1717;50.240;8.406;2023-01-25T08:01:33;3.40;99.90
3408;DHT22;1717;50.240;8.406;2023-01-25T08:04:01;3.40;99.90
3408;DHT22;1717;50.240;8.406;2023-01-25T08:06:32;3.30;99.90
3408;DHT22;1717;50.240;8.406;2023-01-25T08:09:01;3.30;99.90
3408;DHT22;1717;50.240;8.406;2023-01-25T08:11:29;3.20;99.90
3408;DHT22;1717;50.240;8.406;2023-01-25T08:13:57;3.20;99.90
3408;DHT22;1717;50.240;8.406;2023-01-25T08:16:26;3.30;99.90
3408;DHT22;1717;50.240;8.406;2023-01-25T08:18:55;3.40;99.90
3408;DHT22;1717;50.240;8.406;2023-01-25T08:21:23;3.40;99.90
3408;DHT22;1717;50.240;8.406;2023-01-25T08:23:55;3.40;99.90
3408;DHT22;1717;50.240;8.406;2023-01-25T08:26:22;3.40;99.90
3408;DHT22;1717;50.240;8.406;2023-01-25T08:28:49;3.50;99.90
3408;DHT22;1717;50.240;8.406;2023-01-25T08:31:20;3.40;99.90
3408;DHT22;1717;50.240;8.406;2023-01-25T08:33:47;3.40;99.90
3408;DHT22;1717;50.240;8.406;2023-01-25T08:36:16;3.50;99.90
3408;DHT22;1717;50.240;8.406;2023-01-25T08:38:43;3.50;99.90
3408;DHT22;1717;50.240;8.406;2023-01-25T08:41:14;3.60;99.90
3408;DHT22;1717;50.240;8.406;2023-01-25T08:43:41;3.60;99.90
3408;DHT22;1717;50.240;8.406;2023-01-25T08:46:09;3.50;99.90
3408;DHT22;1717;50.240;8.406;2023-01-25T08:48:36;3.60;99.90
3408;DHT22;1717;50.240;8.406;2023-01-25T08:51:06;3.60;99.90
3408;DHT22;1717;50.240;8.406;2023-01-25T08:53:33;3.70;99.90
3408;DHT22;1717;50.240;8.406;2023-01-25T08:56:04;3.70;99.90
3408;DHT22;1717;50.240;8.406;2023-01-25T08:58:33;3.70;99.90
3408;DHT22;1717;50.240;8.406;2023-01-25T09:01:01;3.80;99.90
3408;DHT22;1717;50.240;8.406;2023-01-25T09:03:29;3.80;99.90
3408;DHT22;1717;50.240;8.406;2023-01-25T09:05:56;3.80;99.90
3408;DHT22;1717;50.240;8.406;2023-01-25T09:08:23;3.90;99.90
3408;DHT22;1717;50.240;8.406;2023-01-25T09:10:50;3.90;99.90
3408;DHT22;1717;50.240;8.406;2023-01-25T09:13:17;4.00;99.90
3408;DHT22;1717;50.240;8.406;2023-01-25T09:15:45;4.00;99.90
3408;DHT22;1717;50.240;8.406;2023-01-25T09:18:12;4.00;99.90
3408;DHT22;1717;50.240;8.406;2023-01-25T09:20:40;4.00;99.90
3408;DHT22;1717;50.240;8.406;2023-01-25T09:23:07;4.10;99.90
3408;DHT22;1717;50.240;8.406;2023-01-25T09:25:34;4.20;99.90
3408;DHT22;1717;50.240;8.406;2023-01-25T09:28:01;4.20;99.90
3408;DHT22;1717;50.240;8.406;2023-01-25T09:30:36;4.20;99.90
3408;DHT22;1717;50.240;8.406;2023-01-25T09:33:05;4.20;99.90
3408;DHT22;1717;50.240;8.406;2023-01-25T09:35:31;4.30;99.90
3408;DHT22;1717;50.240;8.406;2023-01-25T09:38:00;4.30;99.90
3408;DHT22;1717;50.240;8.406;2023-01-25T09:40:30;4.30;99.90
3408;DHT22;1717;50.240;8.406;2023-01-25T09:43:01;4.30;99.90
3408;DHT22;1717;50.240;8.406;2023-01-25T09:45:31;4.30;99.90
3408;DHT22;1717;50.240;8.406;2023-01-25T09:48:09;4.30;99.90
3408;DHT22;1717;50.240;8.406;2023-01-25T09:50:52;4.40;99.90
3408;DHT22;1717;50.240;8.406;2023-01-25T09:53:29;4.50;99.90
3408;DHT22;1717;50.240;8.406;2023-01-25T09:56:01;4.40;99.90
3408;DHT22;1717;50.240;8.406;2023-01-25T09:58:32;4.50;99.90
3408;DHT22;1717;50.240;8.406;2023-01-25T10:01:11;4.40;99.90
3408;DHT22;1717;50.240;8.406;2023-01-25T10:03:47;4.30;99.90
3408;DHT22;1717;50.240;8.406;2023-01-25T10:06:16;4.40;99.90
3408;DHT22;1717;50.240;8.406;2023-01-25T10:08:50;4.40;99.90
3408;DHT22;1717;50.240;8.406;2023-01-25T10:11:22;4.40;99.90
3408;DHT22;1717;50.240;8.406;2023-01-25T10:13:50;4.40;99.90
3408;DHT22;1717;50.240;8.406;2023-01-25T10:16:22;4.50;99.90
3408;DHT22;1717;50.240;8.406;2023-01-25T10:18:57;4.60;99.90
3408;DHT22;1717;50.240;8.406;2023-01-25T10:21:28;4.60;99.90
3408;DHT22;1717;50.240;8.406;2023-01-25T10:24:17;4.70;99.90
3408;DHT22;1717;50.240;8.406;2023-01-25T10:26:54;4.60;99.90
3408;DHT22;1717;50.240;8.406;2023-01-25T10:29:26;4.60;99.90
3408;DHT22;1717;50.240;8.406;2023-01-25T10:31:54;4.70;99.90
3408;DHT22;1717;50.240;8.406;2023-01-25T10:34:32;4.70;99.90
3408;DHT22;1717;50.240;8.406;2023-01-25T10:37:13;4.70;99.90
3408;DHT22;1717;50.240;8.406;2023-01-25T10:39:46;4.70;99.90
3408;DHT22;1717;50.240;8.406;2023-01-25T10:42:15;4.70;99.90
3408;DHT22;1717;50.240;8.406;2023-01-25T10:44:42;4.90;99.90
3408;DHT22;1717;50.240;8.406;2023-01-25T10:47:14;4.80;99.90
3408;DHT22;1717;50.240;8.406;2023-01-25T10:49:48;4.80;99.90
3408;DHT22;1717;50.240;8.406;2023-01-25T10:52:18;4.80;99.90
3408;DHT22;1717;50.240;8.406;2023-01-25T10:54:46;4.80;99.90
3408;DHT22;1717;50.240;8.406;2023-01-25T10:57:17;4.80;99.90
3408;DHT22;1717;50.240;8.406;2023-01-25T10:59:45;4.90;99.90
3408;DHT22;1717;50.240;8.406;2023-01-25T11:02:37;4.90;99.90
3408;DHT22;1717;50.240;8.406;2023-01-25T11:05:25;5.00;99.90
3408;DHT22;1717;50.240;8.406;2023-01-25T11:07:52;4.90;99.90
3408;DHT22;1717;50.240;8.406;2023-01-25T11:10:30;4.90;99.90
3408;DHT22;1717;50.240;8.406;2023-01-25T11:13:17;4.90;99.90
3408;DHT22;1717;50.240;8.406;2023-01-25T11:15:47;5.00;99.90
3408;DHT22;1717;50.240;8.406;2023-01-25T11:18:18;4.90;99.90
3408;DHT22;1717;50.240;8.406;2023-01-25T11:20:47;5.00;99.90
3408;DHT22;1717;50.240;8.406;2023-01-25T11:23:28;5.00;99.90
3408;DHT22;1717;50.240;8.406;2023-01-25T11:26:10;5.00;99.90
3408;DHT22;1717;50.240;8.406;2023-01-25T11:28:37;5.00;99.90
3408;DHT22;1717;50.240;8.406;2023-01-25T11:31:07;5.00;99.90
3408;DHT22;1717;50.240;8.406;2023-01-25T11:33:36;5.00;99.90
3408;DHT22;1717;50.240;8.406;2023-01-25T11:36:21;5.00;99.90
3408;DHT22;1717;50.240;8.406;2023-01-25T11:39:09;5.00;99.90
3408;DHT22;1717;50.240;8.406;2023-01-25T11:41:49;5.00;99.90
3408;DHT22;1717;50.240;8.406;2023-01-25T11:47:57;5.20;99.90
3408;DHT22;1717;50.240;8.406;2023-01-25T11:50:31;5.00;99.90
3408;DHT22;1717;50.240;8.406;2023-01-25T11:53:14;5.00;99.90
3408;DHT22;1717;50.240;8.406;2023-01-25T11:55:50;5.00;99.90
3408;DHT22;1717;50.240;8.406;2023-01-25T11:58:34;5.00;99.90
3408;DHT22;1717;50.240;8.406;2023-01-25T12:01:11;5.10;99.90
3408;DHT22;1717;50.240;8.406;2023-01-25T12:06:35;5.10;99.90
3408;DHT22;1717;50.240;8.406;2023-01-25T12:09:19;5.10;99.90
3408;DHT22;1717;50.240;8.406;2023-01-25T12:12:02;5.10;99.90
3408;DHT22;1717;50.240;8.406;2023-01-25T12:14:43;5.10;99.90
3408;DHT22;1717;50.240;8.406;2023-01-25T12:17:23;5.20;99.90
3408;DHT22;1717;50.240;8.406;2023-01-25T12:23:09;5.10;99.90
3408;DHT22;1717;50.240;8.406;2023-01-25T12:25:50;5.10;99.90
3408;DHT22;1717;50.240;8.406;2023-01-25T12:28:23;5.20;99.90
3408;DHT22;1717;50.240;8.406;2023-01-25T12:30:54;5.10;99.90
3408;DHT22;1717;50.240;8.406;2023-01-25T12:33:26;5.10;99.90
3408;DHT22;1717;50.240;8.406;2023-01-25T12:35:58;5.10;99.90
3408;DHT22;1717;50.240;8.406;2023-01-25T12:38:34;5.10;99.90
3408;DHT22;1717;50.240;8.406;2023-01-25T12:41:11;5.10;99.90
3408;DHT22;1717;50.240;8.406;2023-01-25T12:43:45;5.10;99.90
3408;DHT22;1717;50.240;8.406;2023-01-25T12:46:20;5.10;99.90
3408;DHT22;1717;50.240;8.406;2023-01-25T12:48:51;5.10;99.90
3408;DHT22;1717;50.240;8.406;2023-01-25T12:51:21;5.10;99.90
3408;DHT22;1717;50.240;8.406;2023-01-25T12:53:51;5.00;99.90
3408;DHT22;1717;50.240;8.406;2023-01-25T12:56:30;5.10;99.90
3408;DHT22;1717;50.240;8.406;2023-01-25T12:59:02;5.10;99.90
3408;DHT22;1717;50.240;8.406;2023-01-25T13:01:36;5.10;99.90
3408;DHT22;1717;50.240;8.406;2023-01-25T13:04:22;5.10;99.90
3408;DHT22;1717;50.240;8.406;2023-01-25T13:06:55;5.10;99.90
3408;DHT22;1717;50.240;8.406;2023-01-25T13:09:29;5.10;99.90
3408;DHT22;1717;50.240;8.406;2023-01-25T13:12:02;5.10;99.90
3408;DHT22;1717;50.240;8.406;2023-01-25T13:14:34;5.00;99.90
3408;DHT22;1717;50.240;8.406;2023-01-25T13:17:19;5.10;99.90
3408;DHT22;1717;50.240;8.406;2023-01-25T13:19:48;5.10;99.90
3408;DHT22;1717;50.240;8.406;2023-01-25T13:25:24;5.10;99.90
3408;DHT22;1717;50.240;8.406;2023-01-25T13:30:58;5.00;99.90
3408;DHT22;1717;50.240;8.406;2023-01-25T13:33:32;5.00;99.90
3408;DHT22;1717;50.240;8.406;2023-01-25T13:36:36;5.10;99.90
3408;DHT22;1717;50.240;8.406;2023-01-25T13:42:17;5.00;99.90
3408;DHT22;1717;50.240;8.406;2023-01-25T13:44:47;5.10;99.90
3408;DHT22;1717;50.240;8.406;2023-01-25T13:47:18;5.00;99.90
3408;DHT22;1717;50.240;8.406;2023-01-25T13:49:49;5.10;99.90
3408;DHT22;1717;50.240;8.406;2023-01-25T13:52:19;5.10;99.90
3408;DHT22;1717;50.240;8.406;2023-01-25T13:54:47;5.10;99.90
3408;DHT22;1717;50.240;8.406;2023-01-25T13:57:20;5.10;99.90
3408;DHT22;1717;50.240;8.406;2023-01-25T13:59:57;5.00;99.90
3408;DHT22;1717;50.240;8.406;2023-01-25T14:02:24;5.10;99.90
3408;DHT22;1717;50.240;8.406;2023-01-25T14:04:53;5.00;99.90
3408;DHT22;1717;50.240;8.406;2023-01-25T14:07:21;5.00;99.90
3408;DHT22;1717;50.240;8.406;2023-01-25T14:09:50;5.00;99.90
3408;DHT22;1717;50.240;8.406;2023-01-25T14:12:28;5.00;99.90
3408;DHT22;1717;50.240;8.406;2023-01-25T14:15:14;5.00;99.90
3408;DHT22;1717;50.240;8.406;2023-01-25T14:17:42;5.00;99.90
3408;DHT22;1717;50.240;8.406;2023-01-25T14:20:17;5.00;99.90
3408;DHT22;1717;50.240;8.406;2023-01-25T14:22:47;4.90;99.90
3408;DHT22;1717;50.240;8.406;2023-01-25T14:25:16;5.00;99.90
3408;DHT22;1717;50.240;8.406;2023-01-25T14:27:46;4.90;99.90
3408;DHT22;1717;50.240;8.406;2023-01-25T14:30:21;4.90;99.90
3408;DHT22;1717;50.240;8.406;2023-01-25T14:32:49;4.90;99.90
3408;DHT22;1717;50.240;8.406;2023-01-25T14:35:34;4.90;99.90
3408;DHT22;1717;50.240;8.406;2023-01-25T14:38:20;4.90;99.90
3408;DHT22;1717;50.240;8.406;2023-01-25T14:40:50;4.80;99.90
3408;DHT22;1717;50.240;8.406;2023-01-25T14:43:20;4.80;99.90
3408;DHT22;1717;50.240;8.406;2023-01-25T14:45:53;4.90;99.90
3408;DHT22;1717;50.240;8.406;2023-01-25T14:48:38;4.90;99.90
3408;DHT22;1717;50.240;8.406;2023-01-25T14:51:13;4.90;99.90
3408;DHT22;1717;50.240;8.406;2023-01-25T14:53:43;4.80;99.90
3408;DHT22;1717;50.240;8.406;2023-01-25T14:56:29;4.80;99.90
3408;DHT22;1717;50.240;8.406;2023-01-25T14:58:57;4.70;99.90
3408;DHT22;1717;50.240;8.406;2023-01-25T15:01:32;4.70;99.90
3408;DHT22;1717;50.240;8.406;2023-01-25T15:04:02;4.70;99.90
3408;DHT22;1717;50.240;8.406;2023-01-25T15:06:29;4.70;99.90
3408;DHT22;1717;50.240;8.406;2023-01-25T15:08:56;4.80;99.90
3408;DHT22;1717;50.240;8.406;2023-01-25T15:11:29;4.60;99.90
3408;DHT22;1717;50.240;8.406;2023-01-25T15:14:17;4.60;99.90
3408;DHT22;1717;50.240;8.406;2023-01-25T15:16:45;4.60;99.90
3408;DHT22;1717;50.240;8.406;2023-01-25T15:19:23;4.60;99.90
3408;DHT22;1717;50.240;8.406;2023-01-25T15:21:50;4.60;99.90
3408;DHT22;1717;50.240;8.406;2023-01-25T15:24:19;4.50;99.90
3408;DHT22;1717;50.240;8.406;2023-01-25T15:26:49;4.50;99.90
3408;DHT22;1717;50.240;8.406;2023-01-25T15:29:18;4.50;99.90
3408;DHT22;1717;50.240;8.406;2023-01-25T15:31:49;4.50;99.90
3408;DHT22;1717;50.240;8.406;2023-01-25T15:34:17;4.50;99.90
3408;DHT22;1717;50.240;8.406;2023-01-25T15:36:45;4.40;99.90
3408;DHT22;1717;50.240;8.406;2023-01-25T15:39:14;4.40;99.90
3408;DHT22;1717;50.240;8.406;2023-01-25T15:41:41;4.30;99.90
3408;DHT22;1717;50.240;8.406;2023-01-25T15:44:08;4.40;99.90
3408;DHT22;1717;50.240;8.406;2023-01-25T15:46:36;4.40;99.90
3408;DHT22;1717;50.240;8.406;2023-01-25T15:49:07;4.30;99.90
3408;DHT22;1717;50.240;8.406;2023-01-25T15:51:34;4.30;99.90
3408;DHT22;1717;50.240;8.406;2023-01-25T15:54:01;4.20;99.90
3408;DHT22;1717;50.240;8.406;2023-01-25T15:56:30;4.20;99.90
3408;DHT22;1717;50.240;8.406;2023-01-25T15:58:59;4.40;99.90
3408;DHT22;1717;50.240;8.406;2023-01-25T16:01:29;4.20;99.90
3408;DHT22;1717;50.240;8.406;2023-01-25T16:03:57;4.20;99.90
3408;DHT22;1717;50.240;8.406;2023-01-25T16:06:32;4.10;99.90
3408;DHT22;1717;50.240;8.406;2023-01-25T16:09:08;4.20;99.90
3408;DHT22;1717;50.240;8.406;2023-01-25T16:11:37;4.10;99.90
3408;DHT22;1717;50.240;8.406;2023-01-25T16:14:03;4.10;99.90
3408;DHT22;1717;50.240;8.406;2023-01-25T16:16:31;4.20;99.90
3408;DHT22;1717;50.240;8.406;2023-01-25T16:18:59;4.10;99.90
3408;DHT22;1717;50.240;8.406;2023-01-25T16:21:26;4.10;99.90
3408;DHT22;1717;50.240;8.406;2023-01-25T16:23:55;4.10;99.90
3408;DHT22;1717;50.240;8.406;2023-01-25T16:26:25;4.10;99.90
3408;DHT22;1717;50.240;8.406;2023-01-25T16:28:53;4.10;99.90
3408;DHT22;1717;50.240;8.406;2023-01-25T16:31:20;4.00;99.90
3408;DHT22;1717;50.240;8.406;2023-01-25T16:33:47;4.00;99.90
3408;DHT22;1717;50.240;8.406;2023-01-25T16:36:15;4.20;99.90
3408;DHT22;1717;50.240;8.406;2023-01-25T16:38:42;3.90;99.90
3408;DHT22;1717;50.240;8.406;2023-01-25T16:41:11;3.90;99.90
3408;DHT22;1717;50.240;8.406;2023-01-25T16:43:39;4.00;99.90
3408;DHT22;1717;50.240;8.406;2023-01-25T16:46:13;4.00;99.90
3408;DHT22;1717;50.240;8.406;2023-01-25T16:48:41;4.00;99.90
3408;DHT22;1717;50.240;8.406;2023-01-25T16:51:17;4.00;99.90
3408;DHT22;1717;50.240;8.406;2023-01-25T16:53:45;3.90;99.90
3408;DHT22;1717;50.240;8.406;2023-01-25T16:56:18;3.90;99.90